Time;durP1;ratioP1;P1;durP2;ratioP2;P2;SDS_P1;SDS_P2;PMS_P1;PMS_P2;Temp;Humidity;BMP_temperature;BMP_pressure;BME280_temperature;BME280_humidity;BME280_pressure;Samples;Min_cycle;Max_cycle;Signal;HPM_P1;HPM_P2
2023/04/16 07:09:43;;;;;;;0.63;0.63;;;7.10;99.90;;;;;;5038076;28;20189;-84
2023/04/16 07:50:53;;;;;;;0.60;0.60;;;7.60;99.50;;;;;;5382611;22;20235;-84
2023/04/16 07:53:22;;;;;;;0.82;0.82;;;7.80;98.70;;;;;;5035387;28;20677;-84
2023/04/16 07:55:49;;;;;;;0.60;0.60;;;7.90;98.00;;;;;;5036431;28;20211;-82
2023/04/16 07:58:16;;;;;;;0.60;0.60;;;8.10;98.10;;;;;;5036967;28;20516;-84
2023/04/16 08:00:44;;;;;;;0.68;0.68;;;8.10;97.70;;;;;;5036765;28;20564;-82
2023/04/16 08:03:14;;;;;;;0.60;0.60;;;8.00;97.40;;;;;;5035138;28;20198;-84
2023/04/16 08:05:42;;;;;;;0.70;0.70;;;7.90;97.80;;;;;;5033854;28;20214;-82
2023/04/16 08:08:09;;;;;;;0.63;0.63;;;7.90;97.90;;;;;;5018096;28;20209;-83
2023/04/16 08:10:39;;;;;;;0.73;0.73;;;7.80;98.30;;;;;;5015622;28;20205;-85
2023/04/16 08:13:05;;;;;;;0.70;0.63;;;7.80;98.10;;;;;;5034926;28;20266;-86
2023/04/16 08:15:33;;;;;;;1.15;0.70;;;7.80;98.70;;;;;;5036942;28;20219;-84
2023/04/16 08:18:00;;;;;;;0.70;0.70;;;7.70;98.40;;;;;;5002340;28;20256;-83
2023/04/16 08:20:27;;;;;;;0.90;0.75;;;7.80;98.60;;;;;;5024311;28;20234;-82
2023/04/16 08:22:54;;;;;;;0.63;0.63;;;7.80;98.40;;;;;;5190311;23;20230;-83
2023/04/16 08:25:22;;;;;;;0.50;0.47;;;7.80;98.40;;;;;;5022061;28;20276;-82
2023/04/16 08:27:51;;;;;;;2.53;0.55;;;7.80;97.90;;;;;;5020000;28;20199;-82
2023/04/16 08:30:18;;;;;;;0.68;0.65;;;7.80;98.50;;;;;;5001401;28;20679;-82
2023/04/16 08:32:45;;;;;;;0.70;0.70;;;7.90;98.50;;;;;;5023755;28;20194;-84
2023/04/16 08:35:12;;;;;;;0.70;0.70;;;8.00;98.40;;;;;;4996555;28;20223;-84
2023/04/16 08:37:39;;;;;;;1.08;0.65;;;8.00;98.30;;;;;;5019885;28;20199;-82
2023/04/16 08:40:08;;;;;;;0.70;0.70;;;8.20;98.10;;;;;;5021853;28;20207;-83
2023/04/16 08:42:41;;;;;;;0.70;0.65;;;8.30;97.60;;;;;;5009188;28;20200;-83
2023/04/16 08:45:14;;;;;;;0.60;0.60;;;8.50;97.10;;;;;;4995689;28;20776;-83
2023/04/16 08:47:42;;;;;;;0.82;0.75;;;8.70;96.60;;;;;;5008908;28;20262;-84
2023/04/16 08:50:12;;;;;;;0.50;0.50;;;8.70;95.90;;;;;;4995763;28;20212;-82
2023/04/16 08:52:49;;;;;;;0.52;0.50;;;8.80;95.20;;;;;;4996764;28;20556;-83
2023/04/16 08:55:18;;;;;;;0.50;0.50;;;8.90;95.50;;;;;;4996193;28;20245;-82
2023/04/16 08:57:48;;;;;;;1.00;0.50;;;8.90;95.90;;;;;;4996585;28;20530;-82
2023/04/16 09:10:57;;;;;;;1.20;0.60;;;9.30;94.70;;;;;;5015343;28;20615;-82
2023/04/16 09:13:30;;;;;;;0.90;0.90;;;9.50;93.40;;;;;;5013213;28;20199;-83
2023/04/16 09:16:00;;;;;;;0.60;0.60;;;9.60;93.70;;;;;;5007253;28;20223;-81
2023/04/16 09:18:28;;;;;;;0.57;0.57;;;9.80;93.10;;;;;;5001557;28;20210;-82
2023/04/16 09:20:56;;;;;;;0.40;0.40;;;9.90;92.70;;;;;;4995928;28;20596;-87
2023/04/16 09:23:23;;;;;;;0.70;0.70;;;9.90;92.20;;;;;;5144620;23;20235;-82
2023/04/16 09:25:51;;;;;;;0.65;0.60;;;9.80;92.10;;;;;;5032056;28;20231;-82
2023/04/16 09:28:40;;;;;;;0.75;0.60;;;10.00;91.40;;;;;;5023983;28;20210;-82
2023/04/16 09:31:34;;;;;;;0.55;0.55;;;9.90;91.90;;;;;;5023294;28;20198;-83
2023/04/16 09:34:02;;;;;;;0.60;0.60;;;9.90;92.40;;;;;;5035267;28;20202;-82
2023/04/16 09:36:30;;;;;;;0.60;0.60;;;10.20;91.40;;;;;;5033508;28;20541;-82
2023/04/16 09:48:34;;;;;;;0.70;0.70;;;11.10;82.90;;;;;;5024478;28;20273;-85
2023/04/16 09:51:10;;;;;;;0.60;0.60;;;11.20;84.70;;;;;;5010960;28;20211;-84
2023/04/16 09:57:39;;;;;;;0.60;0.60;;;11.00;86.80;;;;;;5012289;28;20191;-85
2023/04/16 10:07:21;;;;;;;0.95;0.95;;;10.90;86.60;;;;;;4974864;28;20318;-89
2023/04/16 10:09:48;;;;;;;1.58;1.48;;;10.80;87.40;;;;;;4975059;28;20267;-84
2023/04/16 10:14:58;;;;;;;0.93;0.93;;;10.60;86.90;;;;;;5033657;28;20202;-83
2023/04/16 10:17:28;;;;;;;7.30;5.53;;;10.40;86.70;;;;;;5032658;28;21785;-79
2023/04/16 10:19:58;;;;;;;3.33;2.88;;;10.30;90.00;;;;;;5031233;28;20533;-84
2023/04/16 10:25:03;;;;;;;3.30;2.90;;;10.10;90.20;;;;;;5012162;28;20781;-84
2023/04/16 10:27:30;;;;;;;4.38;3.95;;;10.20;90.30;;;;;;5010628;28;20210;-84
2023/04/16 10:29:57;;;;;;;1.38;1.27;;;10.40;88.50;;;;;;5009794;28;20209;-83
2023/04/16 10:32:27;;;;;;;0.60;0.60;;;10.60;87.70;;;;;;5004751;28;20202;-85
2023/04/16 10:35:25;;;;;;;0.80;0.80;;;10.90;87.60;;;;;;4986346;28;20237;-87
2023/04/16 10:37:57;;;;;;;1.40;1.30;;;10.80;87.00;;;;;;4994539;28;20199;-87
2023/04/16 10:40:28;;;;;;;10.30;7.47;;;11.00;84.90;;;;;;4977723;28;20294;-86
2023/04/16 10:53:20;;;;;;;0.60;0.60;;;10.40;88.20;;;;;;5014151;28;20201;-86
2023/04/16 11:12:56;;;;;;;0.73;0.60;;;10.40;90.10;;;;;;5013411;28;20179;-87
2023/04/16 11:15:32;;;;;;;1.55;0.45;;;10.40;86.10;;;;;;4963644;28;20330;-87
2023/04/16 11:18:02;;;;;;;1.20;1.10;;;10.50;85.60;;;;;;4996339;28;20298;-87
2023/04/16 11:38:52;;;;;;;0.80;0.80;;;10.20;88.70;;;;;;5033256;28;20170;-86
2023/04/16 11:41:21;;;;;;;1.98;1.65;;;10.00;90.20;;;;;;5034733;28;20260;-86
2023/04/16 11:43:53;;;;;;;0.90;0.90;;;9.80;90.60;;;;;;5037050;28;20523;-86
2023/04/16 11:56:28;;;;;;;1.83;1.73;;;9.90;91.20;;;;;;5025797;28;20288;-86
2023/04/16 12:10:04;;;;;;;1.52;1.27;;;10.00;90.30;;;;;;5016741;28;20227;-86
2023/04/16 12:20:02;;;;;;;0.85;0.80;;;10.30;89.10;;;;;;5016582;28;20190;-85
2023/04/16 12:25:07;;;;;;;1.63;1.45;;;10.00;90.30;;;;;;5741438;22;20231;-87
2023/04/16 12:38:22;;;;;;;4.03;3.30;;;10.20;90.30;;;;;;4997465;28;20191;-86
2023/04/16 12:44:16;;;;;;;1.05;1.00;;;10.40;90.20;;;;;;4996164;28;20171;-86
2023/04/16 12:50:15;;;;;;;1.30;1.20;;;10.40;89.90;;;;;;4996268;28;20628;-87
2023/04/16 12:56:27;;;;;;;1.10;1.00;;;10.40;89.20;;;;;;4996436;28;20164;-86
2023/04/16 13:02:27;;;;;;;1.33;1.23;;;10.30;88.70;;;;;;4995940;28;20163;-86
2023/04/16 13:12:20;;;;;;;3.83;1.10;;;9.90;92.30;;;;;;5015667;28;20192;-85
2023/04/16 13:18:38;;;;;;;3.38;1.83;;;10.00;91.40;;;;;;5015318;28;20627;-86
2023/04/16 13:27:52;;;;;;;5.93;2.53;;;9.90;91.60;;;;;;5034931;28;20206;-87
2023/04/16 13:30:19;;;;;;;1.65;0.90;;;9.90;92.10;;;;;;5035269;28;20189;-87
2023/04/16 13:32:46;;;;;;;1.80;0.90;;;9.70;92.10;;;;;;5035502;28;20183;-86
2023/04/16 13:35:20;;;;;;;0.93;0.82;;;9.70;92.80;;;;;;5035058;28;20277;-87
2023/04/16 13:41:11;;;;;;;0.80;0.80;;;9.50;93.50;;;;;;5034624;28;20178;-86
2023/04/16 13:51:07;;;;;;;0.60;0.60;;;9.40;93.60;;;;;;5034493;28;20183;-87
2023/04/16 13:53:36;;;;;;;1.52;1.17;;;9.40;94.10;;;;;;5035326;28;20206;-86
2023/04/16 13:56:04;;;;;;;1.30;0.90;;;9.60;93.80;;;;;;5034346;28;20211;-87
2023/04/16 13:58:31;;;;;;;0.98;0.93;;;9.80;93.10;;;;;;5033835;28;20240;-87
2023/04/16 14:01:05;;;;;;;1.02;0.93;;;9.70;93.10;;;;;;5016137;28;20659;-88
2023/04/16 14:03:37;;;;;;;3.03;1.80;;;9.80;92.90;;;;;;5033278;28;20209;-87
2023/04/16 14:06:13;;;;;;;1.70;1.55;;;9.80;92.80;;;;;;5033959;28;20218;-87
2023/04/16 14:08:41;;;;;;;1.17;1.08;;;9.80;92.70;;;;;;5016558;28;20205;-86
2023/04/16 14:14:44;;;;;;;3.33;2.10;;;9.90;93.10;;;;;;5014458;28;20252;-87
2023/04/16 14:17:13;;;;;;;0.80;0.80;;;9.90;92.30;;;;;;4981597;28;20282;-87
2023/04/16 14:19:40;;;;;;;0.80;0.70;;;10.00;91.30;;;;;;5016487;28;20552;-87
2023/04/16 14:22:31;;;;;;;1.10;1.00;;;9.90;92.30;;;;;;5027813;28;20314;-87
2023/04/16 14:24:57;;;;;;;2.08;1.77;;;9.90;92.60;;;;;;5013900;28;20573;-87
2023/04/16 14:27:25;;;;;;;0.95;0.77;;;9.90;92.30;;;;;;5033043;28;20230;-87
2023/04/16 14:29:53;;;;;;;1.13;1.05;;;10.00;91.40;;;;;;4999236;28;20203;-88
2023/04/16 14:32:20;;;;;;;0.70;0.70;;;9.90;91.20;;;;;;5028837;28;20670;-87
2023/04/16 14:34:47;;;;;;;0.80;0.80;;;9.80;91.40;;;;;;5023954;28;20244;-87
2023/04/16 14:37:16;;;;;;;1.00;0.90;;;9.80;91.50;;;;;;5036170;28;20198;-87
2023/04/16 14:39:45;;;;;;;5.65;2.20;;;9.60;91.90;;;;;;4996721;28;20703;-87
2023/04/16 14:42:12;;;;;;;4.60;2.88;;;9.50;92.90;;;;;;5033424;28;20203;-86
2023/04/16 14:44:39;;;;;;;2.38;1.08;;;9.60;93.20;;;;;;5035422;28;20191;-87
2023/04/16 14:47:08;;;;;;;2.58;1.85;;;9.70;92.80;;;;;;5034504;28;20210;-86
2023/04/16 14:49:40;;;;;;;0.57;0.57;;;9.70;92.80;;;;;;5019375;28;20202;-87
2023/04/16 14:52:08;;;;;;;9.63;5.28;;;9.80;92.10;;;;;;5029357;28;20209;-88
2023/04/16 14:54:35;;;;;;;0.80;0.80;;;9.90;92.70;;;;;;5028851;28;20198;-87
2023/04/16 14:57:04;;;;;;;0.82;0.75;;;9.90;92.40;;;;;;5033238;28;20213;-87
2023/04/16 14:59:31;;;;;;;0.65;0.65;;;9.70;92.50;;;;;;5045072;28;20198;-87
2023/04/16 15:01:58;;;;;;;0.77;0.75;;;9.60;92.90;;;;;;5032592;28;20659;-86
2023/04/16 15:04:26;;;;;;;2.70;1.95;;;9.50;93.30;;;;;;5042383;28;20672;-86
2023/04/16 15:06:53;;;;;;;5.70;4.05;;;9.70;93.30;;;;;;5001335;28;20300;-86
2023/04/16 15:09:20;;;;;;;6.32;4.20;;;9.70;93.40;;;;;;5014059;28;20293;-87
2023/04/16 15:11:53;;;;;;;0.70;0.70;;;9.90;93.30;;;;;;5033309;28;20205;-87
2023/04/16 15:14:37;;;;;;;2.22;1.42;;;9.90;92.50;;;;;;5004704;28;20209;-86
2023/04/16 15:17:04;;;;;;;11.07;5.35;;;9.90;92.80;;;;;;5034093;28;20234;-86
2023/04/16 15:19:31;;;;;;;1.73;1.20;;;9.90;93.30;;;;;;5037574;28;20229;-88
2023/04/16 15:22:01;;;;;;;2.83;2.05;;;9.90;92.70;;;;;;5020489;28;20265;-85
2023/04/16 15:24:29;;;;;;;2.35;1.80;;;9.90;92.60;;;;;;5033846;28;20282;-84
2023/04/16 15:26:56;;;;;;;2.83;2.05;;;9.80;92.80;;;;;;5035182;28;20227;-85
2023/04/16 15:29:23;;;;;;;4.75;3.15;;;9.80;93.40;;;;;;5022250;28;20252;-86
2023/04/16 15:31:52;;;;;;;10.80;6.57;;;9.80;93.30;;;;;;5031001;28;20206;-87
2023/04/16 15:34:19;;;;;;;7.25;4.28;;;9.80;93.40;;;;;;5036025;28;20207;-84
2023/04/16 15:36:46;;;;;;;1.70;1.60;;;9.70;93.40;;;;;;5033877;28;20202;-84
2023/04/16 15:39:14;;;;;;;6.95;4.90;;;9.60;93.30;;;;;;5032627;28;20206;-85
2023/04/16 15:41:41;;;;;;;3.60;2.63;;;9.70;93.90;;;;;;5008982;28;20195;-84
2023/04/16 15:44:08;;;;;;;1.20;1.10;;;9.80;93.00;;;;;;5024868;28;20194;-86
2023/04/16 15:46:35;;;;;;;9.77;4.60;;;9.70;92.70;;;;;;5034418;28;20280;-83
2023/04/16 15:49:03;;;;;;;7.75;4.22;;;9.70;93.90;;;;;;5030886;28;20195;-82
2023/04/16 15:51:31;;;;;;;2.47;1.08;;;9.70;93.30;;;;;;5016801;28;20553;-85
2023/04/16 15:54:01;;;;;;;1.38;1.15;;;9.70;93.30;;;;;;5034397;28;20208;-84
2023/04/16 15:56:28;;;;;;;3.53;2.47;;;9.70;92.90;;;;;;5030117;28;20194;-84
2023/04/16 15:58:55;;;;;;;1.92;1.58;;;9.70;92.80;;;;;;5034954;28;20202;-84
2023/04/16 16:01:24;;;;;;;3.15;2.13;;;9.70;92.30;;;;;;5035410;28;20198;-87
2023/04/16 16:03:50;;;;;;;1.40;1.30;;;9.70;92.90;;;;;;5036311;28;20198;-83
2023/04/16 16:06:50;;;;;;;7.75;4.32;;;9.70;92.40;;;;;;5037585;28;20218;-84
2023/04/16 16:09:24;;;;;;;4.38;2.58;;;9.60;92.70;;;;;;5035910;28;20655;-86
2023/04/16 16:11:51;;;;;;;4.18;2.88;;;9.60;92.60;;;;;;5015388;28;20226;-84
2023/04/16 16:14:19;;;;;;;4.18;2.55;;;9.70;92.60;;;;;;5019980;28;20262;-85
2023/04/16 16:16:46;;;;;;;1.52;1.30;;;9.60;92.70;;;;;;5016695;28;20218;-85
2023/04/16 16:19:13;;;;;;;18.73;9.43;;;9.40;92.90;;;;;;5020116;28;20229;-85
2023/04/16 16:21:40;;;;;;;10.18;5.68;;;9.40;94.10;;;;;;5034589;28;20209;-85
2023/04/16 16:24:09;;;;;;;3.78;2.92;;;9.50;93.20;;;;;;5016117;28;20582;-83
2023/04/16 16:26:36;;;;;;;3.92;3.17;;;9.40;93.10;;;;;;5034184;28;20230;-83
2023/04/16 16:29:04;;;;;;;6.10;3.15;;;9.40;93.20;;;;;;5035936;28;20207;-84
2023/04/16 16:31:31;;;;;;;4.03;2.70;;;9.40;93.30;;;;;;5043381;28;20202;-84
2023/04/16 16:33:58;;;;;;;2.83;2.53;;;9.30;93.70;;;;;;5038077;28;20202;-84
2023/04/16 16:36:31;;;;;;;1.25;1.15;;;9.20;93.80;;;;;;5050049;28;20567;-85
2023/04/16 16:39:45;;;;;;;4.50;2.63;;;9.00;93.90;;;;;;5041247;28;20296;-89
2023/04/16 16:42:17;;;;;;;1.95;1.70;;;8.90;94.20;;;;;;5033989;28;20198;-81
2023/04/16 16:44:45;;;;;;;2.47;1.80;;;9.00;94.40;;;;;;5035816;28;20226;-84
2023/04/16 16:47:12;;;;;;;7.85;3.97;;;8.90;94.80;;;;;;5027043;28;20309;-84
2023/04/16 16:49:39;;;;;;;1.58;1.05;;;8.90;95.10;;;;;;5035265;28;20568;-84
2023/04/16 16:52:06;;;;;;;3.58;2.20;;;8.90;94.80;;;;;;5032161;28;20203;-85
2023/04/16 16:54:33;;;;;;;6.28;3.30;;;9.00;94.80;;;;;;5026241;28;20202;-84
2023/04/16 16:57:01;;;;;;;1.42;1.23;;;8.90;95.20;;;;;;5033612;28;20207;-84
2023/04/16 16:59:29;;;;;;;3.22;2.25;;;8.80;95.00;;;;;;5033672;28;20222;-84
2023/04/16 17:01:56;;;;;;;4.90;2.28;;;8.80;95.80;;;;;;5032839;28;20202;-84
2023/04/16 17:04:23;;;;;;;2.35;1.23;;;8.70;95.90;;;;;;5032227;28;20207;-85
2023/04/16 17:06:50;;;;;;;1.92;1.70;;;8.80;95.60;;;;;;5032930;28;20297;-85
2023/04/16 17:09:17;;;;;;;1.20;1.00;;;8.80;95.90;;;;;;5032708;28;20203;-84
2023/04/16 17:11:44;;;;;;;1.30;1.10;;;8.70;95.80;;;;;;5027493;28;20755;-84
2023/04/16 17:14:11;;;;;;;3.38;2.35;;;8.70;95.90;;;;;;5032707;28;20203;-84
2023/04/16 17:16:39;;;;;;;4.65;2.75;;;8.70;96.20;;;;;;5033951;28;20203;-83
2023/04/16 17:19:06;;;;;;;1.70;1.60;;;8.70;96.00;;;;;;5012618;28;20205;-83
2023/04/16 17:21:33;;;;;;;2.53;2.03;;;8.70;96.20;;;;;;5030589;28;20213;-85
2023/04/16 17:24:01;;;;;;;6.20;2.63;;;8.80;95.90;;;;;;5031863;28;20233;-84
2023/04/16 17:26:28;;;;;;;1.90;1.42;;;8.70;96.30;;;;;;5037843;28;20202;-84
2023/04/16 17:28:56;;;;;;;4.18;3.10;;;8.70;95.90;;;;;;5028582;28;20199;-83
2023/04/16 17:31:23;;;;;;;6.18;4.00;;;8.70;95.90;;;;;;5034831;28;20199;-85
2023/04/16 17:33:52;;;;;;;1.60;1.20;;;8.60;96.80;;;;;;5038174;28;20194;-84
2023/04/16 17:36:21;;;;;;;5.15;3.47;;;8.50;96.00;;;;;;5028146;28;20210;-84
2023/04/16 17:38:49;;;;;;;2.90;1.65;;;8.50;96.60;;;;;;5031890;28;20198;-84
2023/04/16 17:41:15;;;;;;;3.10;2.33;;;8.40;96.40;;;;;;5034367;28;20647;-84
2023/04/16 17:43:43;;;;;;;6.95;3.70;;;8.50;97.50;;;;;;5032832;28;20194;-82
2023/04/16 17:46:10;;;;;;;6.95;3.97;;;8.50;97.40;;;;;;5033097;28;20572;-83
2023/04/16 17:48:37;;;;;;;1.88;1.55;;;8.50;97.50;;;;;;5032216;28;20376;-83
2023/04/16 17:51:10;;;;;;;3.05;1.73;;;8.60;96.50;;;;;;5027551;28;20205;-83
2023/04/16 17:53:37;;;;;;;3.10;2.10;;;8.50;97.10;;;;;;5024542;28;20213;-84
2023/04/16 17:56:05;;;;;;;3.13;1.30;;;8.50;97.30;;;;;;5032735;28;20195;-82
2023/04/16 17:58:33;;;;;;;2.38;1.65;;;8.30;96.80;;;;;;5032696;28;20195;-82
2023/04/16 18:01:00;;;;;;;1.40;1.30;;;8.40;97.30;;;;;;5028606;28;20190;-82
2023/04/16 18:03:27;;;;;;;1.30;1.20;;;8.30;96.90;;;;;;5012698;28;20215;-84
2023/04/16 18:05:54;;;;;;;4.22;3.08;;;8.20;97.80;;;;;;5032220;28;20205;-83
2023/04/16 18:08:25;;;;;;;2.78;2.20;;;8.20;97.90;;;;;;5035956;28;20222;-83
2023/04/16 18:10:53;;;;;;;1.73;1.20;;;8.30;98.20;;;;;;5047082;28;20205;-83
2023/04/16 18:13:20;;;;;;;1.40;1.17;;;8.10;97.20;;;;;;5038574;28;20234;-84
2023/04/16 18:15:47;;;;;;;1.52;1.20;;;8.00;97.70;;;;;;5033450;28;20199;-83
2023/04/16 18:18:14;;;;;;;3.72;2.28;;;7.90;98.30;;;;;;5027026;28;20199;-84
2023/04/16 18:20:41;;;;;;;2.72;2.20;;;7.90;99.10;;;;;;5026503;28;20202;-84
2023/04/16 18:23:08;;;;;;;3.55;1.42;;;8.00;99.40;;;;;;5022765;28;20227;-84
2023/04/16 18:25:36;;;;;;;6.35;3.58;;;8.10;98.60;;;;;;5033268;28;20214;-84
2023/04/16 18:28:05;;;;;;;5.82;3.83;;;8.10;99.50;;;;;;5033105;28;20711;-84
2023/04/16 18:30:32;;;;;;;2.33;1.80;;;8.30;99.30;;;;;;5033964;28;20586;-84
2023/04/16 18:32:59;;;;;;;7.28;3.28;;;8.30;97.70;;;;;;5031419;28;20199;-84
2023/04/16 18:35:26;;;;;;;3.67;2.40;;;8.40;98.40;;;;;;5035161;28;20211;-84
2023/04/16 18:37:53;;;;;;;6.38;3.70;;;8.50;97.70;;;;;;5012000;28;20194;-85
2023/04/16 18:40:20;;;;;;;6.18;3.45;;;8.50;97.60;;;;;;5031978;28;20199;-83
2023/04/16 18:42:48;;;;;;;3.72;2.35;;;8.60;97.80;;;;;;5026132;28;20191;-84
2023/04/16 18:45:15;;;;;;;1.75;1.63;;;8.60;97.70;;;;;;5035542;28;20214;-84
2023/04/16 18:47:42;;;;;;;9.82;3.92;;;8.50;96.60;;;;;;5032203;28;20236;-83
2023/04/16 18:50:09;;;;;;;3.20;2.47;;;8.40;98.30;;;;;;5033417;28;20202;-85
2023/04/16 18:52:36;;;;;;;2.30;1.83;;;8.50;98.00;;;;;;5036151;28;20203;-83
2023/04/16 18:55:04;;;;;;;3.53;2.13;;;8.70;97.30;;;;;;5021785;28;20198;-84
2023/04/16 18:57:31;;;;;;;3.20;2.22;;;8.50;97.30;;;;;;5018886;28;20213;-84
2023/04/16 18:59:59;;;;;;;3.03;2.25;;;8.30;98.00;;;;;;5040270;28;20202;-84
2023/04/16 19:02:26;;;;;;;1.60;1.30;;;8.40;98.20;;;;;;5036482;28;20226;-84
2023/04/16 19:04:53;;;;;;;3.38;2.05;;;8.10;97.40;;;;;;5036797;28;20202;-84
2023/04/16 19:07:20;;;;;;;3.55;1.60;;;8.10;98.80;;;;;;5034550;28;20222;-84
2023/04/16 19:09:47;;;;;;;5.45;2.83;;;8.10;98.30;;;;;;5036502;28;20209;-85
2023/04/16 19:12:14;;;;;;;2.00;1.50;;;8.30;99.00;;;;;;5036716;28;20202;-85
2023/04/16 19:14:40;;;;;;;7.00;5.93;;;8.40;97.60;;;;;;5038242;28;20194;-84
2023/04/16 19:17:09;;;;;;;23.55;17.55;;;8.40;98.00;;;;;;5035762;28;20202;-86
2023/04/16 19:19:36;;;;;;;18.50;13.93;;;8.40;97.70;;;;;;5039834;28;20190;-84
2023/04/16 19:22:03;;;;;;;23.65;17.42;;;8.40;98.30;;;;;;5034152;28;20218;-85
2023/04/16 19:24:30;;;;;;;5.55;4.72;;;8.40;98.10;;;;;;5035978;28;20650;-84
2023/04/16 19:26:57;;;;;;;5.55;4.72;;;8.20;97.70;;;;;;5038233;28;20199;-84
2023/04/16 19:29:24;;;;;;;3.85;3.17;;;8.30;98.60;;;;;;5035549;28;20248;-83
2023/04/16 19:31:51;;;;;;;2.17;1.75;;;8.40;98.40;;;;;;5028607;28;20205;-84
2023/04/16 19:34:19;;;;;;;4.47;3.05;;;8.20;97.20;;;;;;5036676;28;20202;-84
2023/04/16 19:36:46;;;;;;;4.75;2.70;;;8.00;98.10;;;;;;5036889;28;20201;-84
2023/04/16 19:42:40;;;;;;;2.10;1.90;;;7.80;98.60;;;;;;5036698;28;20178;-84
2023/04/16 19:48:30;;;;;;;10.40;8.23;;;7.40;99.40;;;;;;5035435;28;20248;-84
2023/04/16 19:54:24;;;;;;;10.25;7.28;;;7.90;99.90;;;;;;5036285;28;20662;-84
2023/04/16 19:56:51;;;;;;;4.97;3.50;;;8.10;99.90;;;;;;5036512;28;20202;-83
2023/04/16 19:59:19;;;;;;;5.13;4.13;;;8.20;99.40;;;;;;5044000;28;20281;-84
2023/04/16 20:01:46;;;;;;;3.70;3.05;;;8.20;99.50;;;;;;5034900;28;20214;-84
2023/04/16 20:07:36;;;;;;;7.60;4.47;;;8.10;98.80;;;;;;5036034;28;20256;-85
2023/04/16 20:13:27;;;;;;;1.75;1.63;;;7.60;99.60;;;;;;5034418;28;20227;-84
2023/04/16 20:16:02;;;;;;;13.00;9.02;;;7.50;99.80;;;;;;5036141;28;20217;-84
2023/04/16 20:18:29;;;;;;;17.88;13.60;;;7.50;99.90;;;;;;5022559;28;20286;-84
2023/04/16 20:20:57;;;;;;;2.60;1.80;;;7.60;99.90;;;;;;5016011;28;20200;-83
2023/04/16 20:26:27;;;;;;;2.65;2.22;;;7.40;99.90;;;;;;5035454;23;20568;-83
2023/04/16 20:28:55;;;;;;;1.70;1.17;;;7.40;99.90;;;;;;5025386;28;20302;-84
2023/04/16 20:31:22;;;;;;;6.53;4.70;;;7.20;99.90;;;;;;5028149;28;20194;-84
2023/04/16 20:37:13;;;;;;;11.07;8.25;;;7.10;99.90;;;;;;5029134;28;20549;-83
2023/04/16 20:43:13;;;;;;;11.65;8.07;;;7.00;99.90;;;;;;5035517;28;20261;-84
2023/04/16 20:48:58;;;;;;;9.05;6.25;;;7.00;99.90;;;;;;5035279;28;20218;-84
2023/04/16 20:51:26;;;;;;;5.25;3.88;;;7.00;99.90;;;;;;5035059;28;20199;-84
2023/04/16 20:53:53;;;;;;;2.47;2.15;;;7.00;99.90;;;;;;5035909;28;20206;-84
2023/04/16 20:56:20;;;;;;;1.77;1.63;;;6.90;99.90;;;;;;5029506;28;20201;-84
2023/04/16 20:58:47;;;;;;;3.88;2.90;;;6.80;99.90;;;;;;5026385;28;20633;-84
2023/04/16 21:01:14;;;;;;;9.90;7.75;;;6.60;99.90;;;;;;5035015;28;20195;-85
2023/04/16 21:03:41;;;;;;;11.93;9.13;;;6.80;99.90;;;;;;5035408;28;20202;-84
2023/04/16 21:06:13;;;;;;;10.52;8.18;;;7.00;99.90;;;;;;5035423;28;20194;-85
2023/04/16 21:08:40;;;;;;;10.18;7.75;;;7.20;99.90;;;;;;5022103;28;20238;-84
2023/04/16 21:11:07;;;;;;;10.30;7.13;;;7.30;99.90;;;;;;5015333;28;20203;-84
2023/04/16 21:13:33;;;;;;;5.18;4.07;;;7.40;99.90;;;;;;5013143;28;20202;-84
2023/04/16 21:16:00;;;;;;;8.55;7.03;;;7.30;99.90;;;;;;5034793;28;20190;-85
2023/04/16 21:18:27;;;;;;;5.80;4.50;;;7.40;99.90;;;;;;5034474;28;20655;-84
2023/04/16 21:20:54;;;;;;;2.65;2.15;;;7.40;99.90;;;;;;5030270;28;20663;-83
2023/04/16 21:23:22;;;;;;;2.10;1.83;;;7.40;99.90;;;;;;5009133;28;20223;-85
2023/04/16 21:25:49;;;;;;;2.80;1.60;;;7.20;99.90;;;;;;5008358;28;20209;-85
2023/04/16 21:28:16;;;;;;;3.63;3.33;;;7.10;99.90;;;;;;4982982;28;20232;-85
2023/04/16 21:30:43;;;;;;;2.67;2.05;;;6.90;99.90;;;;;;5012570;28;20206;-84
2023/04/16 21:33:11;;;;;;;7.35;5.60;;;7.00;99.90;;;;;;5004412;28;20286;-85
2023/04/16 21:35:38;;;;;;;6.18;4.43;;;7.20;99.90;;;;;;5013702;28;20563;-84
2023/04/16 21:38:05;;;;;;;6.57;5.43;;;7.40;99.90;;;;;;5015152;28;20213;-85
2023/04/16 21:40:33;;;;;;;6.97;5.85;;;7.40;99.90;;;;;;5014557;28;20213;-84
2023/04/16 21:46:26;;;;;;;5.00;4.05;;;7.50;99.90;;;;;;5002808;28;20548;-84
2023/04/16 21:48:54;;;;;;;2.85;1.90;;;7.60;99.90;;;;;;5029241;28;20298;-84
2023/04/16 21:51:27;;;;;;;2.40;1.90;;;7.50;99.90;;;;;;5022095;28;20674;-84
2023/04/16 21:54:12;;;;;;;2.33;2.10;;;7.30;99.90;;;;;;5014502;28;20670;-84
2023/04/16 21:56:40;;;;;;;2.15;1.90;;;7.10;99.90;;;;;;5011531;28;20587;-84
2023/04/16 21:59:07;;;;;;;7.53;5.85;;;6.80;99.90;;;;;;5014839;28;20212;-85
2023/04/16 22:01:34;;;;;;;2.60;2.10;;;6.90;99.90;;;;;;4998527;28;20648;-85
2023/04/16 22:04:02;;;;;;;2.60;2.17;;;6.80;99.90;;;;;;5010703;28;20214;-84
2023/04/16 22:06:29;;;;;;;8.60;6.63;;;6.60;99.90;;;;;;5033620;28;20209;-84
2023/04/16 22:08:57;;;;;;;2.50;1.88;;;6.60;99.90;;;;;;5028823;28;20231;-84
2023/04/16 22:11:24;;;;;;;9.90;8.43;;;6.60;99.90;;;;;;4982288;28;20583;-83
2023/04/16 22:13:56;;;;;;;15.13;11.60;;;6.60;99.90;;;;;;5026593;28;20623;-85
2023/04/16 22:16:23;;;;;;;11.20;8.05;;;6.80;99.90;;;;;;5014412;28;20656;-84
2023/04/16 22:18:50;;;;;;;12.18;9.18;;;6.90;99.90;;;;;;4993714;28;20196;-84
2023/04/16 22:21:17;;;;;;;11.48;9.02;;;7.00;99.90;;;;;;5005932;28;20196;-84
2023/04/16 22:23:46;;;;;;;9.90;7.68;;;7.10;99.90;;;;;;5020679;28;20230;-83
2023/04/16 22:26:13;;;;;;;10.52;8.10;;;7.20;99.90;;;;;;5008537;28;20299;-84
2023/04/16 22:28:40;;;;;;;3.40;1.90;;;7.20;99.90;;;;;;5001332;28;20222;-84
2023/04/16 22:31:08;;;;;;;1.83;1.48;;;7.10;99.90;;;;;;5012910;28;20203;-86
2023/04/16 22:33:35;;;;;;;9.93;7.13;;;6.80;99.90;;;;;;4980431;28;20249;-84
2023/04/16 22:36:02;;;;;;;9.30;7.30;;;6.80;99.90;;;;;;5009839;28;20206;-84
2023/04/16 22:38:29;;;;;;;10.13;7.50;;;6.90;99.90;;;;;;5022757;28;20214;-84
2023/04/16 22:40:56;;;;;;;11.15;8.30;;;7.00;99.90;;;;;;5011223;28;20214;-84
2023/04/16 22:43:23;;;;;;;15.07;11.18;;;7.10;99.90;;;;;;5016519;28;20214;-83
2023/04/16 22:45:50;;;;;;;29.15;21.65;;;7.20;99.90;;;;;;5004998;28;20191;-84
2023/04/16 22:48:18;;;;;;;8.45;6.65;;;7.30;99.90;;;;;;5013836;28;20226;-84
2023/04/16 22:50:49;;;;;;;20.85;15.70;;;7.30;99.90;;;;;;5013654;28;20194;-83
2023/04/16 22:53:16;;;;;;;16.10;12.27;;;7.40;99.90;;;;;;5022844;28;20237;-83
2023/04/16 22:55:43;;;;;;;2.45;2.25;;;7.40;99.90;;;;;;5005254;28;20195;-84
2023/04/16 22:58:10;;;;;;;8.32;6.13;;;7.40;99.90;;;;;;4996736;28;20600;-84
2023/04/16 23:00:37;;;;;;;15.77;12.45;;;7.40;99.90;;;;;;5013768;28;20579;-84
2023/04/16 23:03:04;;;;;;;14.65;10.55;;;7.30;99.90;;;;;;5004397;28;20217;-84
2023/04/16 23:05:33;;;;;;;12.75;9.52;;;7.30;99.90;;;;;;4977138;28;20200;-83
2023/04/16 23:08:00;;;;;;;1.98;1.30;;;7.40;99.90;;;;;;4994408;28;20199;-84
2023/04/16 23:10:27;;;;;;;9.55;7.70;;;7.10;99.90;;;;;;5012244;28;20199;-84
2023/04/16 23:12:54;;;;;;;11.32;9.35;;;6.80;99.90;;;;;;5024058;28;20210;-84
2023/04/16 23:15:21;;;;;;;4.63;4.15;;;6.70;99.90;;;;;;5012265;28;20202;-85
2023/04/16 23:17:48;;;;;;;3.95;3.20;;;6.70;99.90;;;;;;4995934;28;20207;-84
2023/04/16 23:20:14;;;;;;;6.90;5.90;;;6.50;99.90;;;;;;5017521;28;20210;-84
2023/04/16 23:22:43;;;;;;;9.13;6.95;;;6.50;99.90;;;;;;5011695;28;20238;-83
2023/04/16 23:25:10;;;;;;;9.30;7.40;;;6.60;99.90;;;;;;4999109;28;20215;-85
2023/04/16 23:27:37;;;;;;;4.85;4.00;;;6.60;99.90;;;;;;5004957;28;20939;-84
2023/04/16 23:30:05;;;;;;;5.22;4.18;;;6.60;99.90;;;;;;5011621;28;20222;-84
2023/04/16 23:32:32;;;;;;;8.65;6.97;;;6.50;99.90;;;;;;5012139;28;20203;-85
2023/04/16 23:34:59;;;;;;;11.45;8.77;;;6.50;99.90;;;;;;5007200;28;20566;-84
2023/04/16 23:37:26;;;;;;;12.30;9.50;;;6.50;99.90;;;;;;5011395;28;20674;-84
2023/04/16 23:39:54;;;;;;;8.38;6.80;;;6.60;99.90;;;;;;5018240;28;20290;-85
2023/04/16 23:42:21;;;;;;;30.48;22.10;;;6.50;99.90;;;;;;5006910;28;20206;-86
2023/04/16 23:44:48;;;;;;;24.75;18.95;;;6.60;99.90;;;;;;5008692;28;20207;-84
2023/04/16 23:47:15;;;;;;;24.02;17.45;;;6.60;99.90;;;;;;5008817;28;20211;-84
2023/04/16 23:49:42;;;;;;;1.30;1.20;;;6.70;99.90;;;;;;5020225;28;20578;-85
2023/04/16 23:52:08;;;;;;;1.55;1.00;;;6.60;99.90;;;;;;5016039;28;20195;-85
2023/04/16 23:54:35;;;;;;;9.95;7.75;;;6.40;99.90;;;;;;4997723;28;20195;-84
2023/04/16 23:57:04;;;;;;;18.45;14.35;;;6.20;99.90;;;;;;5019089;28;20202;-85
2023/04/16 23:59:31;;;;;;;11.10;8.57;;;6.40;99.90;;;;;;5011582;28;20549;-84
